Terminal Aerodrome Forecast
Issued by NWS

Home | Current Version | Previous Version | Text Only | Print | Product List | Glossary On
Versions: 1 2 3 4 5 6 7 8 9 10 11 12 13 14 15 16 17 18 19 20 21 22 23 24 25 26 27 28 29
995
FTUS43 KPAH 161301 AAA
TAFCGI
TAF AMD
KCGI 161301Z 1613/1712 36014G22KT P6SM -SHRA SCT012 OVC050
      TEMPO 1613/1616 5SM -SHRA BR OVC012
     FM161700 35015G25KT P6SM BKN035
     FM162200 36012KT P6SM BKN130
     FM170200 02005KT P6SM BKN130=

USA.gov is the U.S. government's official web portal to all federal, state and local government web resources and services.